Terminal Aerodrome Forecast
Issued by NWS

Home | Current Version | Previous Version | Text Only | Print | Product List | Glossary On
Versions: 1 2 3 4 5 6 7 8 9 10 11 12 13 14 15 16 17 18
000
FTUS43 KAPX 202300
TAFPLN
TAF
KPLN 202320Z 2100/2124 26005KT P6SM SCT015 OVC025
     FM210300 32004KT 4SM BR OVC012
     FM211400 35012G21KT P6SM OVC025=

USA.gov is the U.S. government's official web portal to all federal, state and local government web resources and services.